Flight Track Log - Related Links

Times and Time Zones

All times are in EDT time to prevent confusion due to time zone crossing. See the SAA578 flight status page for this flight to view local times or setup timezone preferences in your user account.

Time Position Orientation Groundspeed Altitude Reporting Facility
EDT Latitude Longitude Course Direction KTS MPH feet Rate Location/Type
Wed 12:53:42 PM -29.6110 31.1200 120° Southeast 157 181 200  Level FlightAware ADS-B
Wed 12:54:07 PM -29.5960 31.1330 37° Northeast 149 171 1,400 2,550 Climbing FlightAware ADS-B
Wed 12:54:22 PM -29.5880 31.1400 37° Northeast 150 173 1,900 1,600 Climbing FlightAware ADS-B
Wed 12:54:52 PM -29.5690 31.1560 36° Northeast 189 217 2,600 1,200 Climbing FlightAware ADS-B
Wed 12:55:07 PM -29.5550 31.1600 14° North 214 246 2,800 1,500 Climbing FlightAware ADS-B
Wed 12:55:32 PM -29.5320 31.1430 327° Northwest 254 292 3,600 2,836 Climbing FlightAware ADS-B
Wed 12:56:02 PM -29.5110 31.1100 306° West 267 307 5,400 3,382 Climbing FlightAware ADS-B
Wed 12:56:27 PM -29.4910 31.0820 309° West 278 320 6,700 3,164 Climbing FlightAware ADS-B
Wed 12:56:57 PM -29.4640 31.0470 312° West 295 339 8,300 3,200 Climbing FlightAware ADS-B
Wed 12:57:27 PM -29.4400 31.0140 310° West 295 339 9,900 2,314 Climbing FlightAware ADS-B
Wed 12:58:07 PM -29.4000 30.9610 311° West 343 395 11,000 1,976 Climbing FlightAware ADS-B
Wed 12:58:52 PM -29.3530 30.8990 311° West 369 425 12,700 2,259 Climbing FlightAware ADS-B
Wed 12:59:32 PM -29.3040 30.8340 311° West 381 438 14,200 2,400 Climbing FlightAware ADS-B
Wed 01:00:12 PM -29.2580 30.7730 311° West 389 448 15,900 2,250 Climbing FlightAware ADS-B
Wed 01:00:52 PM -29.2010 30.7210 321° Northwest 402 463 17,200 2,188 Climbing FlightAware ADS-B
Wed 01:01:37 PM -29.1330 30.6660 325° Northwest 407 468 19,000 2,400 Climbing FlightAware ADS-B
Wed 01:02:17 PM -29.0720 30.6160 324° Northwest 407 468 20,600 1,976 Climbing FlightAware ADS-B
Wed 01:03:02 PM -29.0030 30.5600 325° Northwest 418 481 21,800 1,553 Climbing FlightAware ADS-B
Wed 01:03:42 PM -28.9370 30.5060 324° Northwest 432 497 22,800 1,624 Climbing FlightAware ADS-B
Wed 01:04:27 PM -28.8640 30.4470 325° Northwest 439 505 24,100 1,624 Climbing FlightAware ADS-B
Wed 01:05:07 PM -28.7940 30.3910 325° Northwest 446 513 25,100 1,500 Climbing FlightAware ADS-B
Wed 01:05:47 PM -28.7260 30.3360 325° Northwest 453 521 26,100 1,482 Climbing FlightAware ADS-B
Wed 01:06:32 PM -28.6480 30.2740 325° Northwest 458 527 27,200 1,341 Climbing FlightAware ADS-B
Wed 01:07:12 PM -28.5810 30.2190 324° Northwest 466 536 28,000 1,350 Climbing FlightAware ADS-B
Wed 01:07:52 PM -28.5070 30.1600 325° Northwest 470 541 29,000 1,482 Climbing FlightAware ADS-B
Wed 01:08:37 PM -28.4270 30.0960 325° Northwest 471 542 30,100 1,482 Climbing FlightAware ADS-B
Wed 01:09:17 PM -28.3560 30.0390 325° Northwest 473 544 31,100 1,425 Climbing FlightAware ADS-B
Wed 01:09:57 PM -28.2840 29.9820 325° Northwest 475 547 32,000 1,553 Climbing FlightAware ADS-B
Wed 01:10:42 PM -28.2050 29.9190 325° Northwest 467 537 33,300 1,412 Climbing FlightAware ADS-B
Wed 01:11:22 PM -28.1320 29.8610 325° Northwest 465 535 34,000 494 Climbing FlightAware ADS-B
Wed 01:12:07 PM -28.0550 29.8000 325° Northwest 462 532 34,000  Level FlightAware ADS-B
Wed 01:12:47 PM -27.9830 29.7430 325° Northwest 466 536 34,000  Level FlightAware ADS-B
Wed 01:13:32 PM -27.9050 29.6810 325° Northwest 465 535 34,000  Level FlightAware ADS-B
Wed 01:14:12 PM -27.8360 29.6270 325° Northwest 466 536 34,000  Level FlightAware ADS-B
Wed 01:14:52 PM -27.7610 29.5700 326° Northwest 466 536 34,000  Level FlightAware ADS-B
Wed 01:15:37 PM -27.6800 29.5100 327° Northwest 466 536 34,000 -141 Level FlightAware ADS-B
Wed 01:16:17 PM -27.6170 29.4530 321° Northwest 465 535 33,800 -900 Descending FlightAware ADS-B
Wed 01:16:57 PM -27.5440 29.3830 320° Northwest 466 536 32,800 -2,047 Descending FlightAware ADS-B
Wed 01:17:42 PM -27.4710 29.3130 320° Northwest 467 537 30,900 -2,267 Descending FlightAware ADS-B
Wed 01:18:27 PM -27.3970 29.2430 320° Northwest 469 540 29,400 -2,118 Descending FlightAware ADS-B
Wed 01:19:07 PM -27.3300 29.1770 319° Northwest 464 534 27,900 -2,175 Descending FlightAware ADS-B
Wed 01:19:47 PM -27.2640 29.1150 320° Northwest 457 526 26,500 -2,118 Descending FlightAware ADS-B
Wed 01:20:32 PM -27.1920 29.0450 319° Northwest 450 518 24,900 -2,047 Descending FlightAware ADS-B
Wed 01:21:12 PM -27.1290 28.9860 320° Northwest 438 504 23,600 -1,950 Descending FlightAware ADS-B
Wed 01:21:52 PM -27.0670 28.9270 320° Northwest 428 493 22,300 -1,906 Descending FlightAware ADS-B
Wed 01:22:37 PM -27.0010 28.8640 320° Northwest 416 479 20,900 -1,976 Descending FlightAware ADS-B
Wed 01:23:17 PM -26.9430 28.8080 319° Northwest 407 468 19,500 -2,047 Descending FlightAware ADS-B
Wed 01:24:02 PM -26.8800 28.7490 320° Northwest 400 460 18,000 -1,976 Descending FlightAware ADS-B
Wed 01:24:42 PM -26.8240 28.6950 319° Northwest 392 451 16,700 -1,950 Descending FlightAware ADS-B
Wed 01:25:22 PM -26.7680 28.6430 320° Northwest 385 443 15,400 -1,906 Descending FlightAware ADS-B
Wed 01:26:07 PM -26.7060 28.5850 320° Northwest 378 435 14,000 -1,835 Descending FlightAware ADS-B
Wed 01:26:47 PM -26.6540 28.5360 320° Northwest 371 427 12,800 -1,765 Descending FlightAware ADS-B
Wed 01:27:32 PM -26.5960 28.4810 320° Northwest 360 414 11,500 -1,694 Descending FlightAware ADS-B
Wed 01:28:12 PM -26.5470 28.4350 320° Northwest 345 397 10,400 -1,200 Descending FlightAware ADS-B
Wed 01:28:52 PM -26.5000 28.3910 320° Northwest 316 364 9,900 -764 Descending FlightAware ADS-B
Wed 01:29:07 PM -26.4830 28.3740 318° Northwest 307 353 9,700 -1,200 Descending FlightAware ADS-B
Wed 01:29:37 PM -26.4500 28.3440 321° Northwest 298 343 9,000 -1,091 Descending FlightAware ADS-B
Wed 01:30:02 PM -26.4250 28.3200 319° Northwest 286 329 8,700 -655 Descending FlightAware ADS-B
Wed 01:30:32 PM -26.3950 28.2920 320° Northwest 268 308 8,400 -533 Descending FlightAware ADS-B
Wed 01:30:47 PM -26.3820 28.2800 320° Northwest 259 298 8,300 -450 Descending FlightAware ADS-B
Wed 01:31:12 PM -26.3600 28.2590 319° Northwest 246 283 8,100 -600 Descending FlightAware ADS-B
Wed 01:31:27 PM -26.3450 28.2450 320° Northwest 236 272 7,900 -533 Descending FlightAware ADS-B
Wed 01:31:57 PM -26.3210 28.2230 321° Northwest 221 254 7,700 -436 Descending FlightAware ADS-B
Wed 01:32:22 PM -26.3010 28.2110 332° Northwest 205 236 7,500 -545 Descending FlightAware ADS-B
Wed 01:32:52 PM -26.2750 28.2140 North 191 220 7,200 -800 Descending FlightAware ADS-B
Wed 01:33:22 PM -26.2500 28.2220 16° North 187 215 6,700 -982 Descending FlightAware ADS-B
Wed 01:33:47 PM -26.2310 28.2280 16° North 177 204 6,300 -900 Descending FlightAware ADS-B
Wed 01:34:02 PM -26.2180 28.2320 15° North 168 193 6,100 -800 Descending FlightAware ADS-B
Wed 01:34:32 PM -26.1980 28.2380 15° North 145 167 5,700 -655 Descending FlightAware ADS-B
Wed 01:34:57 PM -26.1870 28.2410 14° North 141 162 5,500 -600 Descending FlightAware ADS-B
Wed 01:35:12 PM -26.1780 28.2440 17° North 140 161 5,300 -750 Descending FlightAware ADS-B
Wed 01:35:37 PM -26.1630 28.2490 17° North 140 161 5,000 -720 Descending FlightAware ADS-B

Login

Don't have an account? Register now (free) for customized features, flight alerts, and more!